Time;durP1;ratioP1;P1;durP2;ratioP2;P2;SDS_P1;SDS_P2;PMS_P1;PMS_P2;Temp;Humidity;BMP_temperature;BMP_pressure;BME280_temperature;BME280_humidity;BME280_pressure;Samples;Min_cycle;Max_cycle;Signal;HPM_P1;HPM_P2
2022/08/29 00:00:23;;;;;;;0.57;0.20;;;;;;;13.10;100.00;101611.06;5037534;28;20659;-50
2022/08/29 00:02:51;;;;;;;0.35;0.20;;;;;;;13.08;100.00;101618.41;5034296;28;20079;-48
2022/08/29 00:05:19;;;;;;;0.40;0.28;;;;;;;13.04;100.00;101610.97;5035133;28;20024;-50
2022/08/29 00:07:45;;;;;;;2.30;0.32;;;;;;;13.03;100.00;101609.31;5032786;28;20096;-51
2022/08/29 00:10:10;;;;;;;1.10;0.32;;;;;;;13.04;100.00;101603.81;5030402;28;20031;-48
2022/08/29 00:12:36;;;;;;;1.48;0.10;;;;;;;13.05;100.00;101604.63;5031732;28;20375;-48
2022/08/29 00:15:04;;;;;;;0.30;0.30;;;;;;;13.07;100.00;101606.13;5023796;28;20037;-52
2022/08/29 00:17:30;;;;;;;0.22;0.22;;;;;;;13.09;100.00;101608.59;5036009;28;20067;-52
2022/08/29 00:19:55;;;;;;;1.40;0.10;;;;;;;13.09;100.00;101601.44;5036616;28;20470;-49
2022/08/29 00:22:21;;;;;;;0.82;0.25;;;;;;;13.10;100.00;101608.41;5034038;28;20081;-48
2022/08/29 00:24:46;;;;;;;0.73;0.40;;;;;;;13.07;100.00;101605.28;5039537;28;20028;-54
2022/08/29 00:27:11;;;;;;;3.17;0.20;;;;;;;13.00;100.00;101609.66;5035873;28;20029;-53
2022/08/29 00:29:37;;;;;;;4.38;0.22;;;;;;;12.94;100.00;101611.22;5034014;28;20030;-49
2022/08/29 00:32:02;;;;;;;0.30;0.10;;;;;;;12.90;100.00;101614.41;5032506;28;20037;-51
2022/08/29 00:34:28;;;;;;;0.60;0.20;;;;;;;12.84;100.00;101607.97;5031553;28;20017;-52
2022/08/29 00:36:53;;;;;;;5.57;0.25;;;;;;;12.77;100.00;101607.03;5035342;28;20112;-53
2022/08/29 00:39:19;;;;;;;1.30;0.38;;;;;;;12.71;100.00;101611.22;5033463;28;20106;-51
2022/08/29 00:41:44;;;;;;;2.92;0.22;;;;;;;12.70;100.00;101612.25;5030335;28;20556;-50
2022/08/29 00:44:10;;;;;;;0.40;0.10;;;;;;;12.70;100.00;101612.25;5036246;28;20059;-48
2022/08/29 00:46:42;;;;;;;6.63;1.55;;;;;;;12.69;100.00;101617.72;5029585;28;20473;-51
2022/08/29 00:49:17;;;;;;;2.92;0.40;;;;;;;12.67;100.00;101620.56;5028549;28;20024;-51
2022/08/29 00:51:45;;;;;;;0.25;0.22;;;;;;;12.66;100.00;101616.25;5027465;28;20021;-50
2022/08/29 00:54:12;;;;;;;0.47;0.10;;;;;;;12.69;100.00;101618.56;5029037;28;20030;-51
2022/08/29 00:56:39;;;;;;;1.98;0.47;;;;;;;12.71;100.00;101615.72;5035436;28;20017;-49
2022/08/29 00:59:18;;;;;;;3.72;0.20;;;;;;;12.73;100.00;101617.22;5033034;28;20366;-51
2022/08/29 01:01:45;;;;;;;0.63;0.10;;;;;;;12.73;100.00;101619.03;5029774;28;20030;-48
2022/08/29 01:04:11;;;;;;;0.57;0.20;;;;;;;12.75;100.00;101623.19;5024951;28;20025;-49
2022/08/29 01:06:39;;;;;;;0.20;0.10;;;;;;;12.76;100.00;101619.50;5031940;28;20063;-54
2022/08/29 01:09:06;;;;;;;0.40;0.22;;;;;;;12.75;100.00;101620.53;5033314;28;20320;-48
2022/08/29 01:14:19;;;;;;;1.65;0.45;;;;;;;12.73;100.00;101619.88;5039033;28;20048;-55
2022/08/29 01:16:47;;;;;;;0.45;0.32;;;;;;;12.69;100.00;101618.56;5034889;28;20033;-52
2022/08/29 01:19:43;;;;;;;0.17;0.10;;;;;;;12.68;100.00;101619.56;5033678;28;20021;-51
2022/08/29 01:22:09;;;;;;;0.60;0.50;;;;;;;12.71;100.00;101619.22;5046139;28;20041;-52
2022/08/29 01:24:36;;;;;;;1.58;0.10;;;;;;;12.74;100.00;101620.69;5042966;28;20423;-50
2022/08/29 01:27:02;;;;;;;1.00;0.70;;;;;;;12.71;100.00;101619.22;5032144;28;20584;-52
2022/08/29 01:29:27;;;;;;;1.30;0.50;;;;;;;12.68;100.00;101614.25;5030198;28;20064;-49
2022/08/29 01:31:54;;;;;;;0.25;0.10;;;;;;;12.66;100.00;101613.59;5033088;28;20026;-51
2022/08/29 01:34:20;;;;;;;0.30;0.10;;;;;;;12.67;100.00;101620.56;5031519;28;20030;-49
2022/08/29 01:36:58;;;;;;;0.68;0.40;;;;;;;12.67;100.00;101623.22;5034497;28;20154;-52
2022/08/29 01:39:27;;;;;;;2.65;0.90;;;;;;;12.65;100.00;101615.44;5027635;28;20045;-49
2022/08/29 01:41:54;;;;;;;2.30;0.63;;;;;;;12.65;100.00;101618.09;5037149;28;20056;-53
2022/08/29 01:44:21;;;;;;;0.35;0.28;;;;;;;12.66;100.00;101619.75;5037661;28;20497;-51
2022/08/29 01:46:49;;;;;;;5.28;0.40;;;;;;;12.72;100.00;101620.84;5045079;28;20131;-52
2022/08/29 01:49:17;;;;;;;2.17;0.40;;;;;;;12.73;100.00;101621.72;5039434;28;20112;-50
2022/08/29 01:51:43;;;;;;;0.22;0.20;;;;;;;12.73;100.00;101619.88;5033434;28;20479;-50
2022/08/29 01:54:10;;;;;;;1.35;0.25;;;;;;;12.75;100.00;101615.19;5032500;28;20060;-54
2022/08/29 01:56:39;;;;;;;0.88;0.63;;;;;;;12.79;100.00;101613.81;5041127;28;20033;-55
2022/08/29 01:59:07;;;;;;;3.13;0.10;;;;;;;12.78;100.00;101620.16;5042865;28;20060;-52
2022/08/29 02:01:38;;;;;;;1.77;0.20;;;;;;;12.77;100.00;101623.81;5038614;28;20151;-53
2022/08/29 02:04:06;;;;;;;0.30;0.28;;;;;;;12.75;100.00;101625.00;5043669;28;20033;-53
2022/08/29 02:06:32;;;;;;;1.58;0.30;;;;;;;12.75;100.00;101625.84;5032621;28;20041;-53
2022/08/29 02:08:57;;;;;;;0.25;0.25;;;;;;;12.78;100.00;101630.81;5046174;28;20025;-52
2022/08/29 02:11:23;;;;;;;5.93;0.10;;;;;;;12.78;100.00;101627.31;5037224;28;20163;-53
2022/08/29 02:13:56;;;;;;;0.85;0.60;;;;;;;12.77;100.00;101631.78;5039557;28;20021;-52
2022/08/29 02:16:23;;;;;;;0.30;0.13;;;;;;;12.78;100.00;101637.97;5033962;28;20108;-51
2022/08/29 02:18:49;;;;;;;2.13;0.40;;;;;;;12.77;100.00;101636.31;5041647;28;20506;-49
2022/08/29 02:21:17;;;;;;;1.05;0.50;;;;;;;12.78;100.00;101632.66;5034560;28;20052;-51
2022/08/29 02:23:43;;;;;;;0.43;0.20;;;;;;;12.76;100.00;101635.47;5034289;28;20543;-50
2022/08/29 02:26:09;;;;;;;0.57;0.20;;;;;;;12.76;100.00;101638.13;5038370;28;20029;-50
2022/08/29 02:28:36;;;;;;;1.25;0.30;;;;;;;12.76;100.00;101639.97;5044020;28;20025;-49
2022/08/29 02:31:03;;;;;;;2.70;0.32;;;;;;;12.76;100.00;101638.13;5039365;28;20037;-49
2022/08/29 02:33:30;;;;;;;2.65;0.20;;;;;;;12.75;100.00;101636.50;5036724;28;20033;-49
2022/08/29 02:35:56;;;;;;;2.00;0.57;;;;;;;12.73;100.00;101633.19;5028317;28;20446;-49
2022/08/29 02:38:21;;;;;;;5.38;0.30;;;;;;;12.70;100.00;101635.34;5024591;28;20049;-48
2022/08/29 02:40:48;;;;;;;1.55;0.05;;;;;;;12.65;100.00;101634.06;5042956;28;20033;-51
2022/08/29 02:43:15;;;;;;;0.10;0.10;;;;;;;12.63;100.00;101633.41;5037702;28;20067;-48
2022/08/29 02:45:42;;;;;;;0.82;0.15;;;;;;;12.61;100.00;101632.75;5032416;28;20037;-49
2022/08/29 02:48:08;;;;;;;0.77;0.10;;;;;;;12.59;100.00;101637.41;5031259;28;20041;-53
2022/08/29 02:50:34;;;;;;;2.88;0.25;;;;;;;12.59;100.00;101639.25;5030469;28;20021;-50
2022/08/29 02:52:59;;;;;;;0.80;0.20;;;;;;;12.59;100.00;101639.25;5040116;28;20033;-50
2022/08/29 02:55:25;;;;;;;0.73;0.20;;;;;;;12.60;100.00;101635.59;5039157;28;20399;-50
2022/08/29 02:57:52;;;;;;;2.22;0.35;;;;;;;12.60;100.00;101635.59;5037281;28;20036;-49
2022/08/29 03:00:21;;;;;;;0.20;0.10;;;;;;;12.63;100.00;101638.72;5031126;28;20525;-55
2022/08/29 03:02:48;;;;;;;1.23;1.08;;;;;;;12.66;100.00;101634.88;5034408;28;20018;-49
2022/08/29 03:05:15;;;;;;;0.40;0.30;;;;;;;12.69;100.00;101634.53;5033137;28;20097;-51
2022/08/29 03:07:42;;;;;;;1.35;0.52;;;;;;;12.71;100.00;101626.38;5033458;28;20032;-51
2022/08/29 03:10:08;;;;;;;6.30;0.50;;;;;;;12.76;100.00;101626.66;5035297;28;20431;-48
2022/08/29 03:12:35;;;;;;;2.90;0.50;;;;;;;12.81;100.00;101626.97;5048076;28;20080;-49
2022/08/29 03:15:00;;;;;;;1.00;0.15;;;;;;;12.81;100.00;101611.81;5042468;28;20061;-49
2022/08/29 03:17:26;;;;;;;0.55;0.20;;;;;;;12.81;100.00;101622.47;5043962;28;20044;-50
2022/08/29 03:19:51;;;;;;;1.27;0.13;;;;;;;12.82;100.00;101616.13;5037906;28;20029;-49
2022/08/29 03:22:17;;;;;;;0.75;0.20;;;;;;;12.84;100.00;101616.78;5037773;28;20031;-49
2022/08/29 03:24:42;;;;;;;1.52;0.13;;;;;;;12.83;100.00;101617.81;5045058;28;20044;-50
2022/08/29 03:27:08;;;;;;;3.33;0.10;;;;;;;12.83;100.00;101620.47;5037563;28;20028;-50
2022/08/29 03:29:33;;;;;;;0.68;0.10;;;;;;;12.81;100.00;101619.81;5039339;28;20063;-51
2022/08/29 03:31:59;;;;;;;2.28;0.20;;;;;;;12.84;100.00;101619.44;5031051;28;20037;-51
2022/08/29 03:34:28;;;;;;;1.33;0.20;;;;;;;12.90;100.00;101619.75;5034959;28;20029;-53
2022/08/29 03:36:54;;;;;;;0.85;0.57;;;;;;;12.92;100.00;101621.22;5044729;28;20029;-53
2022/08/29 03:39:19;;;;;;;1.60;0.40;;;;;;;12.90;100.00;101615.22;5038194;28;20059;-50
2022/08/29 03:41:45;;;;;;;1.25;0.08;;;;;;;12.90;100.00;101617.06;5040702;28;20091;-49
2022/08/29 03:44:11;;;;;;;0.88;0.08;;;;;;;12.90;100.00;101609.09;5034836;28;20013;-53
2022/08/29 03:46:38;;;;;;;0.80;0.28;;;;;;;12.90;100.00;101609.91;5040290;28;20029;-51
2022/08/29 03:49:06;;;;;;;0.28;0.28;;;;;;;12.94;100.00;101615.72;5041130;28;20444;-54
2022/08/29 03:51:33;;;;;;;0.43;0.10;;;;;;;12.99;100.00;101611.50;5049171;28;20039;-52
2022/08/29 03:53:58;;;;;;;0.70;0.65;;;;;;;13.00;100.00;101610.50;5035643;28;20048;-49
2022/08/29 03:56:24;;;;;;;0.25;0.03;;;;;;;13.04;100.00;101616.31;5036308;28;20376;-48
2022/08/29 03:58:50;;;;;;;3.90;0.50;;;;;;;13.05;100.00;101620.63;5043049;28;20339;-54
2022/08/29 04:01:17;;;;;;;1.23;0.38;;;;;;;13.06;100.00;101619.59;5046730;28;20061;-53
2022/08/29 04:03:42;;;;;;;1.67;0.55;;;;;;;13.02;100.00;101618.31;5042940;28;20028;-51
2022/08/29 04:06:08;;;;;;;0.30;0.30;;;;;;;13.03;100.00;101617.28;5043245;28;20516;-51
2022/08/29 04:08:33;;;;;;;0.30;0.13;;;;;;;13.05;100.00;101616.09;5042562;28;20433;-55
2022/08/29 04:10:59;;;;;;;2.30;0.25;;;;;;;13.04;100.00;101619.78;5030189;28;20029;-49
2022/08/29 04:13:24;;;;;;;2.55;0.10;;;;;;;13.02;100.00;101613.00;5035748;28;20049;-53
2022/08/29 04:15:51;;;;;;;0.70;0.10;;;;;;;13.00;100.00;101615.00;5033474;28;20029;-49
2022/08/29 04:18:16;;;;;;;2.17;0.20;;;;;;;13.10;100.00;101620.91;5035785;28;20049;-49
2022/08/29 04:20:43;;;;;;;0.30;0.00;;;;;;;13.14;100.00;101618.69;5036377;28;20076;-53
2022/08/29 04:23:11;;;;;;;1.02;0.30;;;;;;;13.15;100.00;101618.53;5028570;28;20474;-51
2022/08/29 04:25:38;;;;;;;0.75;0.15;;;;;;;13.18;100.00;101612.84;5034134;28;20079;-53
2022/08/29 04:28:07;;;;;;;1.35;0.40;;;;;;;13.22;100.00;101614.13;5040070;28;20601;-50
2022/08/29 04:30:33;;;;;;;0.38;0.10;;;;;;;13.27;100.00;101614.47;5029857;28;20118;-50
2022/08/29 04:32:59;;;;;;;1.17;0.55;;;;;;;13.30;100.00;101611.44;5037415;28;20029;-48
2022/08/29 04:35:24;;;;;;;0.55;0.13;;;;;;;13.35;100.00;101610.06;5033205;28;20356;-53
2022/08/29 04:37:49;;;;;;;1.80;0.20;;;;;;;13.39;100.00;101614.00;5042454;28;20087;-51
2022/08/29 04:40:18;;;;;;;1.17;0.10;;;;;;;13.36;100.00;101611.72;5036338;28;20040;-48
2022/08/29 04:42:45;;;;;;;3.08;0.30;;;;;;;13.34;100.00;101613.72;5034727;28;20033;-54
2022/08/29 04:45:13;;;;;;;0.20;0.10;;;;;;;13.30;100.00;101615.94;5044665;28;20478;-50
2022/08/29 04:47:39;;;;;;;2.47;0.25;;;;;;;13.32;100.00;101616.59;5032882;28;20052;-48
2022/08/29 04:50:06;;;;;;;0.73;0.28;;;;;;;13.33;100.00;101620.88;5031097;28;20101;-54
2022/08/29 04:52:32;;;;;;;1.73;0.52;;;;;;;13.30;100.00;101627.41;5037122;28;20071;-50
2022/08/29 04:54:57;;;;;;;1.25;0.20;;;;;;;13.31;100.00;101629.06;5036295;28;20751;-51
2022/08/29 04:57:23;;;;;;;2.92;0.20;;;;;;;13.32;100.00;101632.56;5033265;28;20459;-55
2022/08/29 04:59:53;;;;;;;3.25;0.30;;;;;;;13.30;100.00;101627.41;5040960;28;20694;-48
2022/08/29 05:02:19;;;;;;;1.33;0.20;;;;;;;13.27;100.00;101634.94;5035766;28;20651;-50
2022/08/29 05:04:46;;;;;;;1.63;0.17;;;;;;;13.27;100.00;101632.28;5035448;28;20040;-47
2022/08/29 05:07:12;;;;;;;0.57;0.57;;;;;;;13.30;100.00;101637.25;5044835;28;20080;-49
2022/08/29 05:09:37;;;;;;;1.65;0.60;;;;;;;13.29;100.00;101638.22;5039262;28;20052;-53
2022/08/29 05:12:03;;;;;;;0.40;0.03;;;;;;;13.30;100.00;101643.38;5033365;28;20041;-50
2022/08/29 05:14:29;;;;;;;3.17;0.15;;;;;;;13.33;100.00;101641.38;5045023;28;20087;-48
2022/08/29 05:16:54;;;;;;;0.80;0.75;;;;;;;13.34;100.00;101641.19;5045160;28;20039;-51
2022/08/29 05:19:19;;;;;;;2.65;0.15;;;;;;;13.35;100.00;101647.38;5039209;28;20033;-51
2022/08/29 05:21:45;;;;;;;2.05;0.10;;;;;;;13.34;100.00;101651.00;5033851;28;20116;-48
2022/08/29 05:24:11;;;;;;;3.35;0.20;;;;;;;13.34;100.00;101641.19;5037782;28;20044;-52
2022/08/29 05:26:40;;;;;;;0.15;0.10;;;;;;;13.36;100.00;101643.69;5035860;28;20029;-55
2022/08/29 05:29:07;;;;;;;1.10;0.43;;;;;;;13.40;100.00;101650.28;5041081;28;20501;-53
2022/08/29 05:31:35;;;;;;;0.55;0.10;;;;;;;13.41;100.00;101643.97;5032996;28;20065;-53
2022/08/29 05:34:00;;;;;;;0.10;0.10;;;;;;;13.44;100.00;101640.94;5035799;28;20034;-54
2022/08/29 05:36:25;;;;;;;0.50;0.10;;;;;;;13.43;100.00;101641.94;5041240;28;20385;-52
2022/08/29 05:38:51;;;;;;;1.30;0.60;;;;;;;13.42;100.00;101648.28;5030088;28;20117;-50
2022/08/29 05:41:17;;;;;;;0.70;0.20;;;;;;;13.43;100.00;101655.28;5035714;28;20041;-53
2022/08/29 05:43:42;;;;;;;0.45;0.17;;;;;;;13.46;100.00;101646.91;5028052;28;20180;-53
2022/08/29 05:46:11;;;;;;;2.42;0.63;;;;;;;13.48;100.00;101656.38;5033421;28;20029;-52
2022/08/29 05:48:40;;;;;;;0.93;0.13;;;;;;;13.53;100.00;101655.84;5030940;28;20061;-51
2022/08/29 05:51:05;;;;;;;0.20;0.10;;;;;;;13.57;100.00;101654.44;5035830;28;20041;-53
2022/08/29 05:53:32;;;;;;;1.45;0.30;;;;;;;13.59;100.00;101654.28;5032714;28;20025;-49
2022/08/29 05:55:57;;;;;;;1.55;0.40;;;;;;;13.65;100.00;101653.53;5036572;28;20033;-50
2022/08/29 05:58:22;;;;;;;0.63;0.10;;;;;;;13.69;100.00;101650.31;5034893;28;20123;-51
2022/08/29 06:00:48;;;;;;;0.95;0.08;;;;;;;13.71;100.00;101645.66;5037405;28;20027;-50
2022/08/29 06:03:14;;;;;;;3.20;0.75;;;;;;;13.77;100.00;101651.25;5031718;28;20029;-48
2022/08/29 06:05:39;;;;;;;1.23;0.10;;;;;;;13.83;100.00;101651.34;5032723;28;20017;-50
2022/08/29 06:08:05;;;;;;;2.22;0.10;;;;;;;13.90;100.00;101646.09;5037654;28;20127;-49
2022/08/29 06:10:31;;;;;;;0.10;0.00;;;;;;;14.04;100.00;101649.75;5032697;28;20044;-52
2022/08/29 06:12:57;;;;;;;0.35;0.05;;;;;;;14.14;100.00;101655.66;5031072;28;20056;-49
2022/08/29 06:15:22;;;;;;;0.43;0.43;;;;;;;14.18;100.00;101652.44;5030794;28;20371;-54
2022/08/29 06:17:48;;;;;;;2.60;0.22;;;;;;;14.20;100.00;101665.59;5032366;28;20022;-51
2022/08/29 06:20:14;;;;;;;1.45;0.52;;;;;;;14.23;100.00;101656.38;5030517;28;20025;-52
2022/08/29 06:22:39;;;;;;;2.30;0.10;;;;;;;14.27;100.00;101660.31;5035436;28;20044;-55
2022/08/29 06:25:05;;;;;;;0.28;0.22;;;;;;;14.30;100.00;101666.13;5040201;28;20156;-53
2022/08/29 06:27:31;;;;;;;1.13;0.22;;;;;;;14.35;100.00;101655.72;5046639;28;20056;-51
2022/08/29 06:29:56;;;;;;;0.20;0.20;;;;;;;14.36;100.00;101657.38;5041250;28;20444;-51
2022/08/29 06:32:22;;;;;;;1.85;0.95;;;;;;;14.38;100.00;101666.00;5043004;28;20047;-52
2022/08/29 06:34:48;;;;;;;0.40;0.40;;;;;;;14.40;100.00;101655.97;5041432;28;20025;-49
2022/08/29 06:37:13;;;;;;;0.75;0.32;;;;;;;14.46;100.00;101659.75;5041884;28;20123;-52
2022/08/29 06:39:39;;;;;;;0.30;0.10;;;;;;;14.49;100.00;101658.53;5039322;28;20482;-52
2022/08/29 06:42:04;;;;;;;0.00;0.00;;;;;;;14.52;100.00;101661.66;5029383;28;20040;-48
2022/08/29 06:44:30;;;;;;;0.30;0.10;;;;;;;14.55;100.00;101652.47;5043075;28;20040;-50
2022/08/29 06:46:56;;;;;;;0.65;0.10;;;;;;;14.60;100.00;101652.72;5031490;28;20032;-53
2022/08/29 06:49:21;;;;;;;1.00;0.63;;;;;;;14.65;100.00;101653.00;5034960;28;20033;-50
2022/08/29 06:51:50;;;;;;;2.65;0.65;;;;;;;14.73;100.00;101662.72;5045319;28;20028;-51
2022/08/29 06:54:18;;;;;;;1.17;0.00;;;;;;;14.79;100.00;101656.59;5039418;28;20160;-50
2022/08/29 06:56:44;;;;;;;1.17;0.22;;;;;;;14.86;100.00;101652.16;5044071;28;20032;-52
2022/08/29 06:59:10;;;;;;;2.67;0.40;;;;;;;14.93;100.00;101646.91;5036842;28;20021;-49
2022/08/29 07:01:35;;;;;;;1.85;0.57;;;;;;;15.01;100.00;101652.09;5038482;28;20059;-50
2022/08/29 07:04:02;;;;;;;0.77;0.30;;;;;;;15.09;100.00;101646.63;5038874;28;20040;-50
2022/08/29 07:06:27;;;;;;;1.65;0.00;;;;;;;15.18;100.00;101656.16;5031912;28;20064;-48
2022/08/29 07:08:52;;;;;;;0.45;0.05;;;;;;;15.27;100.00;101648.84;5033525;28;20053;-55
2022/08/29 07:11:18;;;;;;;2.55;0.17;;;;;;;15.34;100.00;101649.72;5038162;28;20026;-49
2022/08/29 07:13:44;;;;;;;1.38;0.50;;;;;;;15.42;100.00;101641.53;5032666;28;20424;-54
2022/08/29 07:16:15;;;;;;;0.10;0.08;;;;;;;15.50;100.00;101643.25;5041900;28;20368;-51
2022/08/29 07:18:41;;;;;;;0.45;0.00;;;;;;;15.56;100.00;101650.47;5040839;28;20029;-51
2022/08/29 07:21:07;;;;;;;1.10;0.60;;;;;;;15.61;100.00;101642.69;5043058;28;20065;-49
2022/08/29 07:23:33;;;;;;;0.40;0.00;;;;;;;15.63;100.00;101642.50;5031762;28;20510;-51
2022/08/29 07:26:21;;;;;;;0.38;0.38;;;;;;;15.65;100.00;101638.63;5035259;28;20094;-48
2022/08/29 07:28:49;;;;;;;0.10;0.00;;;;;;;15.67;100.00;101638.44;5042063;28;20391;-48
2022/08/29 07:31:15;;;;;;;1.25;0.52;;;;;;;15.65;100.00;101635.94;5035916;28;20052;-49
2022/08/29 07:33:40;;;;;;;0.73;0.10;;;;;;;15.68;100.00;101635.56;5036205;28;20025;-47
2022/08/29 07:36:06;;;;;;;0.20;0.20;;;;;;;15.74;100.00;101631.28;5044739;28;20029;-48
2022/08/29 07:38:32;;;;;;;1.33;0.38;;;;;;;15.87;100.00;101627.88;5035327;28;20056;-49
2022/08/29 07:41:07;;;;;;;0.63;0.30;;;;;;;16.17;100.00;101615.03;5031175;28;20025;-48
2022/08/29 07:43:32;;;;;;;1.55;0.20;;;;;;;16.48;100.00;101621.72;5039591;28;20121;-48
2022/08/29 07:45:58;;;;;;;1.38;0.10;;;;;;;16.73;100.00;101620.13;5035306;28;20112;-50
2022/08/29 07:48:24;;;;;;;0.43;0.17;;;;;;;16.70;100.00;101608.97;5043731;28;20029;-48
2022/08/29 07:50:50;;;;;;;2.80;0.47;;;;;;;16.63;100.00;101611.66;5033534;28;20025;-54
2022/08/29 07:53:16;;;;;;;0.65;0.17;;;;;;;16.61;100.00;101618.25;5043043;28;20458;-50
2022/08/29 07:55:42;;;;;;;1.48;0.22;;;;;;;16.68;100.00;101622.59;5042318;28;20036;-49
2022/08/29 07:58:08;;;;;;;1.67;0.30;;;;;;;16.70;100.00;101630.41;5042759;28;20033;-49
2022/08/29 08:00:33;;;;;;;0.20;0.00;;;;;;;16.82;100.00;101623.44;5032103;28;20098;-51
2022/08/29 08:02:59;;;;;;;0.30;0.00;;;;;;;16.91;100.00;101624.91;5044430;28;20071;-52
2022/08/29 08:05:24;;;;;;;0.43;0.20;;;;;;;16.99;100.00;101622.03;5036394;28;20033;-47
2022/08/29 08:07:50;;;;;;;2.78;0.20;;;;;;;17.09;100.00;101620.78;5034999;28;20108;-52
2022/08/29 08:10:18;;;;;;;4.28;0.20;;;;;;;17.07;100.00;101615.63;5037366;28;20536;-53
2022/08/29 08:12:45;;;;;;;0.50;0.20;;;;;;;17.14;100.00;101616.47;5032174;28;20099;-52
2022/08/29 08:15:11;;;;;;;3.40;0.77;;;;;;;17.26;100.00;101613.16;5032822;28;20037;-53
2022/08/29 08:17:36;;;;;;;0.10;0.00;;;;;;;17.36;100.00;101605.50;5032724;28;20021;-50
2022/08/29 08:20:05;;;;;;;1.10;0.17;;;;;;;17.46;100.00;101611.28;5039210;28;20041;-51
2022/08/29 08:22:31;;;;;;;0.77;0.32;;;;;;;17.38;100.00;101606.13;5023005;28;20026;-51
2022/08/29 08:24:56;;;;;;;0.68;0.10;;;;;;;17.29;100.00;101612.72;5030725;28;20029;-51
2022/08/29 08:27:22;;;;;;;0.03;0.00;;;;;;;17.20;100.00;101626.34;5036522;28;20040;-49
2022/08/29 08:29:47;;;;;;;3.55;0.20;;;;;;;17.18;100.00;101627.59;5035675;28;20498;-49
2022/08/29 08:32:12;;;;;;;1.75;0.10;;;;;;;17.50;100.00;101619.72;5042759;28;20035;-49
2022/08/29 08:34:38;;;;;;;0.30;0.25;;;;;;;17.85;100.00;101618.41;5033517;28;20029;-50
2022/08/29 08:37:07;;;;;;;1.17;0.10;;;;;;;18.16;100.00;101621.41;5034010;28;20470;-51
2022/08/29 08:39:33;;;;;;;0.25;0.10;;;;;;;18.32;100.00;101607.47;5042185;28;20066;-55
2022/08/29 08:42:05;;;;;;;1.48;0.10;;;;;;;18.14;100.00;101610.06;5036078;28;20029;-49
2022/08/29 08:44:55;;;;;;;1.35;0.82;;;;;;;18.19;100.00;101608.38;5036427;28;20120;-52
2022/08/29 08:47:29;;;;;;;4.43;0.00;;;;;;;18.38;100.00;101617.38;5038616;28;20104;-54
2022/08/29 08:50:05;;;;;;;1.85;0.00;;;;;;;18.47;100.00;101605.31;5036635;28;20483;-56
2022/08/29 08:52:36;;;;;;;0.77;0.20;;;;;;;18.37;100.00;101621.06;5037784;28;20032;-49
2022/08/29 08:55:34;;;;;;;2.45;0.30;;;;;;;18.20;100.00;101610.03;5036904;28;20039;-54
2022/08/29 08:58:22;;;;;;;0.30;0.15;;;;;;;18.51;100.00;101608.41;5045110;28;20040;-53
2022/08/29 09:00:55;;;;;;;0.10;0.10;;;;;;;18.82;100.00;101604.94;5044988;28;20165;-55
2022/08/29 09:03:36;;;;;;;0.50;0.20;;;;;;;18.48;100.00;101596.25;5046752;28;20039;-49
2022/08/29 09:06:26;;;;;;;0.65;0.30;;;;;;;18.48;100.00;101609.69;5038068;28;20285;-49
2022/08/29 09:09:28;;;;;;;2.47;0.30;;;;;;;18.64;100.00;101619.06;5039823;28;20807;-50
2022/08/29 09:12:32;;;;;;;4.85;0.25;;;;;;;18.56;100.00;101597.84;5027743;28;20067;-51
2022/08/29 09:15:06;;;;;;;3.25;0.10;;;;;;;18.31;100.00;101605.84;5038522;28;20048;-53
2022/08/29 09:17:53;;;;;;;0.30;0.10;;;;;;;18.06;100.00;101608.44;5038337;28;20073;-54
2022/08/29 09:20:22;;;;;;;0.60;0.25;;;;;;;18.04;100.00;101605.97;5039756;28;20391;-50
2022/08/29 09:23:04;;;;;;;1.48;0.13;;;;;;;17.97;100.00;101610.53;5034177;28;20088;-55
2022/08/29 09:25:34;;;;;;;1.10;0.28;;;;;;;17.78;100.00;101611.41;5033554;28;20029;-50
2022/08/29 09:28:01;;;;;;;0.47;0.00;;;;;;;17.67;100.00;101612.88;5032937;28;20025;-50
2022/08/29 09:30:30;;;;;;;0.55;0.30;;;;;;;17.66;100.00;101613.91;5036416;28;20031;-52
2022/08/29 09:33:11;;;;;;;0.25;0.25;;;;;;;17.72;100.00;101609.56;5034315;28;20033;-55
2022/08/29 09:35:40;;;;;;;1.00;0.30;;;;;;;17.82;100.00;101613.47;5039296;28;20068;-54
2022/08/29 09:38:17;;;;;;;0.70;0.70;;;;;;;17.89;100.00;101610.78;5037944;28;20091;-54
2022/08/29 09:40:51;;;;;;;0.82;0.28;;;;;;;17.94;100.00;101607.44;5036968;28;20534;-49
2022/08/29 09:43:40;;;;;;;0.50;0.20;;;;;;;18.10;100.00;101615.03;5034785;28;20091;-54
2022/08/29 09:46:23;;;;;;;1.40;0.13;;;;;;;18.37;100.00;101606.84;5033055;28;20112;-49
2022/08/29 09:49:12;;;;;;;0.20;0.10;;;;;;;18.44;100.00;101605.75;5024017;28;20056;-51
2022/08/29 09:51:44;;;;;;;0.35;0.22;;;;;;;18.44;100.00;101611.13;5033044;28;20025;-52
2022/08/29 09:54:22;;;;;;;0.50;0.05;;;;;;;18.46;100.00;101606.38;5032637;28;20041;-50
2022/08/29 09:56:50;;;;;;;1.38;0.28;;;;;;;18.52;100.00;101594.75;5032223;28;20108;-52
2022/08/29 09:59:26;;;;;;;2.30;0.55;;;;;;;19.18;100.00;101611.44;5039196;28;20024;-52
2022/08/29 10:02:10;;;;;;;1.38;0.10;;;;;;;19.35;100.00;101600.94;5035111;28;20032;-53
2022/08/29 10:04:41;;;;;;;1.63;0.20;;;;;;;19.35;100.00;101595.56;5037435;28;20047;-51
2022/08/29 10:07:36;;;;;;;1.08;0.05;;;;;;;19.15;100.00;101603.81;5030492;28;20662;-51
2022/08/29 10:10:19;;;;;;;1.23;0.50;;;;;;;18.82;100.00;101594.19;5031168;28;20079;-50
2022/08/29 10:12:48;;;;;;;1.55;0.40;;;;;;;18.73;100.00;101590.06;5034666;28;20049;-54
2022/08/29 10:15:20;;;;;;;0.82;0.10;;;;;;;18.63;100.00;101590.53;5037260;28;20041;-55
2022/08/29 10:20:47;;;;;;;0.28;0.25;;;;;;;18.69;100.00;101580.78;5041965;28;20527;-54
2022/08/29 10:23:32;;;;;;;0.20;0.15;;;;;;;18.60;100.00;101582.94;5009792;28;20124;-50
2022/08/29 10:26:06;;;;;;;2.40;0.35;;;;;;;18.69;100.00;101587.00;5022878;28;20108;-50
2022/08/29 10:28:42;;;;;;;1.48;0.35;;;;;;;19.08;100.00;101585.06;5030371;28;20025;-51
2022/08/29 10:31:15;;;;;;;0.10;0.08;;;;;;;19.37;100.00;101583.53;5024052;28;20048;-55
2022/08/29 10:33:56;;;;;;;0.75;0.15;;;;;;;19.49;100.00;101585.47;5028743;28;20136;-51
2022/08/29 10:36:30;;;;;;;4.90;0.50;;;;;;;19.71;100.00;101578.63;5030713;28;20505;-54
2022/08/29 10:39:07;;;;;;;3.90;0.10;;;;;;;19.85;100.00;101562.34;5040092;28;20489;-49
2022/08/29 10:41:46;;;;;;;1.30;0.88;;;;;;;19.81;100.00;101567.34;5037721;28;20113;-55
2022/08/29 10:44:35;;;;;;;1.75;0.20;;;;;;;19.43;100.00;101565.69;5041662;28;20036;-54
2022/08/29 10:47:16;;;;;;;0.75;0.25;;;;;;;19.18;100.00;101568.44;5031541;28;20029;-54
2022/08/29 10:50:02;;;;;;;0.77;0.35;;;;;;;19.04;100.00;101569.59;5029519;28;20033;-56
2022/08/29 10:52:55;;;;;;;2.35;0.30;;;;;;;19.17;100.00;101561.41;5037927;28;20029;-55
2022/08/29 10:55:59;;;;;;;1.80;0.55;;;;;;;19.11;100.00;101552.38;5034656;28;20539;-56
2022/08/29 10:58:41;;;;;;;1.05;0.20;;;;;;;19.00;100.00;101561.16;5029721;28;20510;-49
2022/08/29 11:01:12;;;;;;;1.55;0.40;;;;;;;19.22;100.00;101548.13;5045346;28;20033;-51
2022/08/29 11:04:08;;;;;;;2.65;0.20;;;;;;;19.76;100.00;101543.00;5035415;28;20171;-53
2022/08/29 11:06:42;;;;;;;0.85;0.32;;;;;;;20.42;100.00;101541.22;5038240;28;20033;-51
2022/08/29 11:09:14;;;;;;;0.10;0.10;;;;;;;20.87;100.00;101544.28;5022680;28;20029;-49
2022/08/29 11:11:47;;;;;;;1.50;0.17;;;;;;;21.25;100.00;101539.47;5024487;28;20110;-48
2022/08/29 11:14:24;;;;;;;2.20;0.50;;;;;;;21.48;100.00;101542.16;5026820;28;20120;-48
2022/08/29 11:16:52;;;;;;;0.20;0.08;;;;;;;21.44;100.00;101538.28;5021745;28;20030;-49
2022/08/29 11:19:26;;;;;;;0.90;0.15;;;;;;;21.45;100.00;101531.84;5021679;28;20018;-50
2022/08/29 11:22:11;;;;;;;0.68;0.10;;;;;;;21.13;100.00;101526.78;5025450;28;20365;-51
2022/08/29 11:24:38;;;;;;;0.65;0.20;;;;;;;21.15;100.00;101531.16;5014954;28;20034;-51
2022/08/29 11:27:22;;;;;;;0.30;0.30;;;;;;;21.25;100.00;101532.19;5019761;28;20578;-54
2022/08/29 11:30:03;;;;;;;3.00;0.98;;;;;;;21.17;100.00;101526.31;5036627;28;20039;-52
2022/08/29 11:32:37;;;;;;;1.10;0.10;;;;;;;21.48;100.00;101515.16;5032940;28;20234;-54